Time;durP1;ratioP1;P1;durP2;ratioP2;P2;SDS_P1;SDS_P2;PMS_P1;PMS_P2;Temp;Humidity;BMP_temperature;BMP_pressure;BME280_temperature;BME280_humidity;BME280_pressure;Samples;Min_cycle;Max_cycle;Signal;HPM_P1;HPM_P2
2021/10/26 00:01:42;;;;;;;2.53;2.33;;;;;;;;;;5033835;28;20205;-45
2021/10/26 00:04:08;;;;;;;3.42;2.08;;;;;;;;;;5033298;28;20211;-45
2021/10/26 00:06:35;;;;;;;2.65;2.10;;;;;;;;;;5034196;28;20180;-45
2021/10/26 00:09:01;;;;;;;3.58;2.50;;;;;;;;;;5033740;28;20186;-45
2021/10/26 00:11:28;;;;;;;2.58;2.28;;;;;;;;;;5034406;28;20187;-45
2021/10/26 00:13:53;;;;;;;2.17;2.00;;;;;;;;;;5033042;28;20245;-45
2021/10/26 00:16:20;;;;;;;3.92;2.88;;;;;;;;;;5033830;28;20819;-45
2021/10/26 00:18:46;;;;;;;3.72;2.30;;;;;;;;;;5034205;28;20183;-45
2021/10/26 00:21:12;;;;;;;2.60;2.40;;;;;;;;;;5038314;28;20472;-45
2021/10/26 00:23:38;;;;;;;2.75;2.35;;;;;;;;;;5036505;28;20200;-45
2021/10/26 00:26:04;;;;;;;2.90;2.00;;;;;;;;;;5038414;28;20172;-45
2021/10/26 00:28:31;;;;;;;4.13;2.25;;;;;;;;;;5037870;28;20242;-45
2021/10/26 00:30:57;;;;;;;3.47;2.25;;;;;;;;;;5037491;28;20211;-45
2021/10/26 00:33:23;;;;;;;2.90;1.92;;;;;;;;;;5036754;28;20195;-45
2021/10/26 00:35:49;;;;;;;3.72;2.13;;;;;;;;;;5037876;28;20192;-46
2021/10/26 00:38:15;;;;;;;2.60;2.20;;;;;;;;;;5038004;28;20183;-45
2021/10/26 00:40:43;;;;;;;2.08;1.98;;;;;;;;;;5037559;28;20188;-45
2021/10/26 00:43:09;;;;;;;2.08;1.90;;;;;;;;;;5037472;28;20200;-45
2021/10/26 00:45:35;;;;;;;3.13;2.47;;;;;;;;;;5037971;28;20184;-45
2021/10/26 00:48:01;;;;;;;3.15;2.35;;;;;;;;;;5037372;28;20238;-45
2021/10/26 00:50:27;;;;;;;2.60;2.40;;;;;;;;;;5037444;28;20175;-45
2021/10/26 00:52:53;;;;;;;2.42;2.03;;;;;;;;;;5036543;28;20198;-45
2021/10/26 00:55:19;;;;;;;3.47;1.90;;;;;;;;;;5037996;28;20183;-45
2021/10/26 00:57:46;;;;;;;2.50;2.10;;;;;;;;;;5037257;28;20198;-45
2021/10/26 01:00:13;;;;;;;2.10;2.00;;;;;;;;;;5036339;28;20192;-45
2021/10/26 01:02:42;;;;;;;2.60;2.40;;;;;;;;;;5029939;28;20275;-45
2021/10/26 01:05:08;;;;;;;2.25;1.80;;;;;;;;;;5037202;28;20179;-45
2021/10/26 01:07:34;;;;;;;2.28;2.08;;;;;;;;;;5037354;28;20187;-45
2021/10/26 01:10:00;;;;;;;2.17;1.98;;;;;;;;;;5037616;28;20207;-45
2021/10/26 01:12:28;;;;;;;2.42;2.20;;;;;;;;;;5036594;28;20215;-45
2021/10/26 01:14:54;;;;;;;2.42;2.20;;;;;;;;;;5036907;28;20187;-45
2021/10/26 01:17:21;;;;;;;2.47;1.98;;;;;;;;;;5035747;28;20206;-45
2021/10/26 01:19:48;;;;;;;2.33;2.03;;;;;;;;;;5036841;28;20176;-46
2021/10/26 01:22:15;;;;;;;2.25;2.05;;;;;;;;;;5036242;28;20191;-46
2021/10/26 01:24:41;;;;;;;2.33;2.13;;;;;;;;;;5036221;28;20316;-46
2021/10/26 01:27:07;;;;;;;2.38;2.17;;;;;;;;;;5036929;28;20163;-46
2021/10/26 01:29:33;;;;;;;2.00;1.90;;;;;;;;;;5036784;28;20184;-45
2021/10/26 01:32:04;;;;;;;2.05;1.83;;;;;;;;;;5029526;28;20178;-45
2021/10/26 01:34:30;;;;;;;2.30;2.05;;;;;;;;;;5035585;28;20270;-45
2021/10/26 01:37:02;;;;;;;2.13;1.92;;;;;;;;;;5037339;28;20187;-46
2021/10/26 01:39:29;;;;;;;2.28;2.03;;;;;;;;;;5036917;28;20176;-46
2021/10/26 01:41:55;;;;;;;2.22;2.03;;;;;;;;;;5031162;28;20203;-46
2021/10/26 01:44:22;;;;;;;2.40;2.20;;;;;;;;;;5036266;28;20207;-46
2021/10/26 01:46:48;;;;;;;2.10;1.90;;;;;;;;;;5036428;28;20183;-46
2021/10/26 01:49:14;;;;;;;2.40;2.20;;;;;;;;;;5036442;28;20188;-46
2021/10/26 01:51:40;;;;;;;2.72;2.00;;;;;;;;;;5030467;28;20559;-46
2021/10/26 01:54:06;;;;;;;2.50;2.30;;;;;;;;;;5030434;28;20227;-46
2021/10/26 01:56:32;;;;;;;2.28;2.08;;;;;;;;;;5036419;28;20489;-46
2021/10/26 01:58:58;;;;;;;2.15;1.95;;;;;;;;;;5036717;28;20188;-46
2021/10/26 02:01:24;;;;;;;3.83;2.10;;;;;;;;;;5035190;28;20298;-46
2021/10/26 02:03:50;;;;;;;2.80;2.00;;;;;;;;;;5034806;28;20203;-46
2021/10/26 02:06:16;;;;;;;2.40;2.20;;;;;;;;;;5036306;28;20414;-46
2021/10/26 02:08:42;;;;;;;2.75;2.45;;;;;;;;;;5035399;28;20187;-46
2021/10/26 02:11:08;;;;;;;2.67;2.08;;;;;;;;;;5036027;28;20180;-46
2021/10/26 02:13:34;;;;;;;2.00;1.90;;;;;;;;;;5035587;28;20605;-46
2021/10/26 02:16:00;;;;;;;1.95;1.83;;;;;;;;;;5050264;28;20187;-46
2021/10/26 02:18:28;;;;;;;2.30;2.03;;;;;;;;;;5056291;28;20415;-46
2021/10/26 02:20:54;;;;;;;1.92;1.83;;;;;;;;;;5054724;28;20559;-46
2021/10/26 02:23:21;;;;;;;1.90;1.80;;;;;;;;;;5034292;28;20295;-46
2021/10/26 02:25:47;;;;;;;2.47;1.90;;;;;;;;;;5035699;28;20184;-46
2021/10/26 02:28:12;;;;;;;2.40;2.15;;;;;;;;;;5036027;28;20199;-46
2021/10/26 02:30:41;;;;;;;1.95;1.80;;;;;;;;;;5035986;28;20179;-46
2021/10/26 02:33:07;;;;;;;2.83;1.85;;;;;;;;;;5034432;28;20478;-46
2021/10/26 02:35:33;;;;;;;2.28;2.08;;;;;;;;;;5035828;28;20191;-46
2021/10/26 02:38:00;;;;;;;2.15;1.90;;;;;;;;;;5035507;28;20510;-45
2021/10/26 02:40:27;;;;;;;2.10;1.90;;;;;;;;;;5035002;28;20187;-45
2021/10/26 02:42:53;;;;;;;2.15;1.95;;;;;;;;;;5033098;28;20309;-45
2021/10/26 02:45:19;;;;;;;3.10;1.95;;;;;;;;;;5035803;28;20160;-45
2021/10/26 02:47:46;;;;;;;1.88;1.77;;;;;;;;;;5030859;28;20451;-45
2021/10/26 02:50:14;;;;;;;2.13;1.88;;;;;;;;;;5035155;28;20625;-45
2021/10/26 02:52:40;;;;;;;4.03;2.00;;;;;;;;;;5034560;28;20210;-45
2021/10/26 02:55:06;;;;;;;2.10;1.90;;;;;;;;;;5034939;28;20559;-45
2021/10/26 02:57:33;;;;;;;2.15;2.00;;;;;;;;;;5034673;28;20672;-45
2021/10/26 02:59:59;;;;;;;3.53;2.08;;;;;;;;;;5035693;28;20579;-45
2021/10/26 03:02:25;;;;;;;2.25;1.63;;;;;;;;;;5031339;28;20223;-45
2021/10/26 03:04:51;;;;;;;2.40;1.80;;;;;;;;;;5034578;28;20215;-45
2021/10/26 03:07:17;;;;;;;2.42;1.95;;;;;;;;;;5034869;28;20556;-45
2021/10/26 03:09:46;;;;;;;2.05;1.85;;;;;;;;;;5034638;28;20176;-46
2021/10/26 03:12:12;;;;;;;1.98;1.80;;;;;;;;;;5033402;28;20200;-46
2021/10/26 03:14:38;;;;;;;1.85;1.75;;;;;;;;;;5034588;28;20258;-46
2021/10/26 03:17:04;;;;;;;1.80;1.70;;;;;;;;;;5035125;28;20230;-46
2021/10/26 03:19:30;;;;;;;2.60;1.73;;;;;;;;;;5034688;28;20184;-46
2021/10/26 03:21:56;;;;;;;3.45;1.70;;;;;;;;;;5034146;28;20176;-46
2021/10/26 03:24:22;;;;;;;2.20;2.00;;;;;;;;;;5034715;28;20203;-46
2021/10/26 03:26:48;;;;;;;1.80;1.70;;;;;;;;;;5034676;28;20590;-46
2021/10/26 03:29:14;;;;;;;2.38;1.80;;;;;;;;;;5035238;28;20187;-46
2021/10/26 03:31:40;;;;;;;3.03;2.08;;;;;;;;;;5033444;28;20208;-46
2021/10/26 03:34:07;;;;;;;2.25;1.90;;;;;;;;;;5024793;28;20465;-46
2021/10/26 03:36:33;;;;;;;2.10;1.88;;;;;;;;;;5034695;28;20176;-46
2021/10/26 03:38:59;;;;;;;2.33;2.13;;;;;;;;;;5034831;28;20184;-46
2021/10/26 03:41:26;;;;;;;2.92;1.92;;;;;;;;;;5033119;28;20554;-46
2021/10/26 03:43:53;;;;;;;2.00;1.80;;;;;;;;;;5032895;28;20225;-46
2021/10/26 03:46:19;;;;;;;3.33;1.77;;;;;;;;;;5034529;28;20211;-46
2021/10/26 03:48:46;;;;;;;2.38;2.10;;;;;;;;;;5033628;28;20180;-46
2021/10/26 03:51:12;;;;;;;2.63;1.73;;;;;;;;;;5033947;28;20777;-46
2021/10/26 03:53:38;;;;;;;2.50;1.83;;;;;;;;;;5033599;28;20199;-46
2021/10/26 03:56:04;;;;;;;3.40;1.77;;;;;;;;;;5024544;28;20188;-46
2021/10/26 03:58:31;;;;;;;2.20;1.75;;;;;;;;;;5033456;28;20795;-46
2021/10/26 04:00:57;;;;;;;5.13;1.67;;;;;;;;;;5028501;28;20203;-46
2021/10/26 04:03:24;;;;;;;2.08;1.88;;;;;;;;;;5032360;28;20309;-46
2021/10/26 04:08:31;;;;;;;3.13;1.90;;;;;;;;;;5033609;28;20176;-46
2021/10/26 04:11:01;;;;;;;4.85;2.08;;;;;;;;;;5028916;28;20207;-46
2021/10/26 04:13:27;;;;;;;6.47;2.38;;;;;;;;;;5033408;28;20441;-46
2021/10/26 04:15:57;;;;;;;10.60;3.00;;;;;;;;;;5033357;28;20237;-46
2021/10/26 04:18:23;;;;;;;10.35;3.20;;;;;;;;;;5034469;28;20253;-46
2021/10/26 04:20:50;;;;;;;6.70;2.85;;;;;;;;;;5023497;28;20187;-46
2021/10/26 04:23:16;;;;;;;8.93;2.92;;;;;;;;;;5034093;28;20561;-46
2021/10/26 04:25:42;;;;;;;7.72;3.13;;;;;;;;;;5034088;28;20203;-46
2021/10/26 04:28:08;;;;;;;7.93;2.90;;;;;;;;;;5034317;28;20172;-46
2021/10/26 04:30:36;;;;;;;11.80;3.33;;;;;;;;;;5023993;28;20184;-46
2021/10/26 04:33:03;;;;;;;9.93;3.42;;;;;;;;;;5033313;28;20184;-46
2021/10/26 04:35:29;;;;;;;11.48;3.88;;;;;;;;;;5034458;28;20168;-46
2021/10/26 04:37:56;;;;;;;12.07;3.70;;;;;;;;;;5034221;28;20262;-46
2021/10/26 04:40:22;;;;;;;9.20;3.33;;;;;;;;;;5033133;28;20183;-46
2021/10/26 04:42:48;;;;;;;8.93;3.42;;;;;;;;;;5033322;28;20188;-46
2021/10/26 04:45:14;;;;;;;11.63;3.65;;;;;;;;;;5033744;28;20500;-47
2021/10/26 04:47:43;;;;;;;8.10;3.33;;;;;;;;;;5033258;28;20188;-46
2021/10/26 04:50:09;;;;;;;10.70;3.97;;;;;;;;;;5027654;28;20618;-46
2021/10/26 04:52:35;;;;;;;9.93;3.67;;;;;;;;;;5029631;28;20194;-46
2021/10/26 04:55:01;;;;;;;7.35;3.35;;;;;;;;;;5033751;28;20172;-46
2021/10/26 04:57:27;;;;;;;6.70;3.25;;;;;;;;;;5033965;28;20187;-46
2021/10/26 04:59:55;;;;;;;7.90;3.42;;;;;;;;;;5033572;28;20176;-46
2021/10/26 05:02:21;;;;;;;6.40;3.40;;;;;;;;;;5033175;28;20219;-46
2021/10/26 05:04:47;;;;;;;9.65;3.80;;;;;;;;;;5032708;28;20231;-46
2021/10/26 05:07:15;;;;;;;9.48;3.63;;;;;;;;;;5035271;28;20760;-46
2021/10/26 05:09:41;;;;;;;8.85;3.45;;;;;;;;;;5036252;28;20830;-46
2021/10/26 05:12:07;;;;;;;7.13;3.25;;;;;;;;;;5036855;28;20191;-46
2021/10/26 05:14:33;;;;;;;9.80;3.42;;;;;;;;;;5037044;28;20537;-46
2021/10/26 05:16:59;;;;;;;8.13;2.95;;;;;;;;;;5037386;28;20448;-46
2021/10/26 05:19:28;;;;;;;8.43;3.60;;;;;;;;;;5036389;28;20175;-46
2021/10/26 05:21:54;;;;;;;4.55;2.70;;;;;;;;;;5036371;28;20184;-46
2021/10/26 05:24:21;;;;;;;8.75;3.00;;;;;;;;;;5036433;28;20502;-46
2021/10/26 05:26:47;;;;;;;9.43;3.95;;;;;;;;;;5036385;28;20482;-46
2021/10/26 05:29:13;;;;;;;8.48;3.33;;;;;;;;;;5036698;28;20190;-47
2021/10/26 05:31:39;;;;;;;12.05;3.15;;;;;;;;;;5019730;28;20251;-46
2021/10/26 05:34:09;;;;;;;6.72;2.90;;;;;;;;;;5036811;28;20168;-46
2021/10/26 05:36:36;;;;;;;7.53;3.13;;;;;;;;;;5036656;28;20176;-46
2021/10/26 05:39:02;;;;;;;5.07;2.95;;;;;;;;;;5034130;28;20198;-46
2021/10/26 05:41:28;;;;;;;6.03;2.97;;;;;;;;;;5035892;28;20262;-46
2021/10/26 05:43:54;;;;;;;4.20;2.67;;;;;;;;;;5036511;28;20203;-46
2021/10/26 05:46:21;;;;;;;6.72;3.05;;;;;;;;;;5036784;28;20195;-46
2021/10/26 05:48:47;;;;;;;7.22;3.40;;;;;;;;;;5036626;28;20266;-46
2021/10/26 05:51:13;;;;;;;5.53;3.13;;;;;;;;;;5036075;28;20259;-46
2021/10/26 05:53:39;;;;;;;5.20;3.13;;;;;;;;;;5036222;28;20586;-46
2021/10/26 05:56:05;;;;;;;4.15;2.63;;;;;;;;;;5036918;28;20603;-46
2021/10/26 05:58:31;;;;;;;5.75;2.97;;;;;;;;;;5036557;28;20191;-46
2021/10/26 06:00:57;;;;;;;5.95;3.13;;;;;;;;;;5028622;28;20547;-46
2021/10/26 06:03:23;;;;;;;4.28;2.65;;;;;;;;;;5035774;28;20219;-46
2021/10/26 06:05:49;;;;;;;5.80;2.97;;;;;;;;;;5036313;28;20172;-46
2021/10/26 06:08:15;;;;;;;6.03;2.90;;;;;;;;;;5035952;28;20266;-46
2021/10/26 06:10:54;;;;;;;6.30;3.30;;;;;;;;;;5036415;28;20184;-46
2021/10/26 06:13:25;;;;;;;3.65;2.40;;;;;;;;;;5035691;28;20628;-46
2021/10/26 06:15:51;;;;;;;5.68;3.03;;;;;;;;;;5036133;28;20199;-47
2021/10/26 06:18:18;;;;;;;5.60;2.90;;;;;;;;;;5035843;28;20188;-46
2021/10/26 06:20:44;;;;;;;4.90;2.90;;;;;;;;;;5026904;28;20185;-46
2021/10/26 06:23:10;;;;;;;5.38;2.50;;;;;;;;;;5028664;28;20211;-46
2021/10/26 06:25:36;;;;;;;7.22;2.95;;;;;;;;;;5036151;28;20172;-46
2021/10/26 06:28:02;;;;;;;4.90;2.63;;;;;;;;;;5034906;28;20259;-46
2021/10/26 06:30:28;;;;;;;4.93;2.38;;;;;;;;;;5036049;28;20563;-46
2021/10/26 06:32:54;;;;;;;4.45;2.35;;;;;;;;;;5035470;28;20472;-46
2021/10/26 06:35:20;;;;;;;4.15;2.50;;;;;;;;;;5035639;28;20168;-46
2021/10/26 06:37:46;;;;;;;5.22;2.75;;;;;;;;;;5034714;28;20214;-46
2021/10/26 06:40:12;;;;;;;5.30;2.60;;;;;;;;;;5035264;28;20286;-46
2021/10/26 06:42:39;;;;;;;4.30;2.60;;;;;;;;;;5035864;28;20226;-46
2021/10/26 06:45:05;;;;;;;5.13;2.35;;;;;;;;;;5035160;28;20646;-46
2021/10/26 06:47:31;;;;;;;6.70;3.08;;;;;;;;;;5035326;28;20191;-46
2021/10/26 06:49:57;;;;;;;3.92;2.45;;;;;;;;;;5034479;28;20663;-46
2021/10/26 06:52:23;;;;;;;4.45;2.30;;;;;;;;;;5035438;28;20259;-46
2021/10/26 06:54:50;;;;;;;4.45;2.30;;;;;;;;;;5035137;28;20215;-46
2021/10/26 06:57:17;;;;;;;2.75;2.42;;;;;;;;;;5035381;28;20286;-47
2021/10/26 06:59:43;;;;;;;3.05;2.20;;;;;;;;;;5034099;28;20191;-46
2021/10/26 07:02:09;;;;;;;4.43;2.72;;;;;;;;;;5035107;28;20199;-46
2021/10/26 07:04:36;;;;;;;3.00;2.22;;;;;;;;;;5034431;28;20639;-46
2021/10/26 07:07:03;;;;;;;3.13;2.40;;;;;;;;;;5035260;28;20199;-46
2021/10/26 07:09:29;;;;;;;2.97;2.15;;;;;;;;;;5031230;28;20636;-46
2021/10/26 07:11:55;;;;;;;2.90;2.15;;;;;;;;;;5035015;28;20300;-46
2021/10/26 07:14:21;;;;;;;2.97;2.38;;;;;;;;;;5034906;28;20176;-46
2021/10/26 07:16:47;;;;;;;3.47;2.20;;;;;;;;;;5035177;28;20524;-48
2021/10/26 07:19:13;;;;;;;3.63;2.17;;;;;;;;;;5034298;28;20326;-46
2021/10/26 07:21:39;;;;;;;4.00;2.40;;;;;;;;;;5034768;28;20545;-46
2021/10/26 07:24:05;;;;;;;5.22;2.50;;;;;;;;;;5033818;28;20208;-46
2021/10/26 07:26:33;;;;;;;4.70;2.78;;;;;;;;;;5034753;28;20571;-46
2021/10/26 07:28:59;;;;;;;4.30;2.40;;;;;;;;;;5028141;28;20576;-46
2021/10/26 07:31:26;;;;;;;4.13;2.83;;;;;;;;;;5027354;28;20337;-46
2021/10/26 07:33:57;;;;;;;2.78;2.00;;;;;;;;;;5033850;28;20266;-46
2021/10/26 07:36:26;;;;;;;4.25;2.13;;;;;;;;;;5034807;28;20188;-46
2021/10/26 07:39:01;;;;;;;3.25;2.20;;;;;;;;;;5034215;28;20186;-46
2021/10/26 07:41:27;;;;;;;2.78;2.10;;;;;;;;;;5034554;28;20197;-46
2021/10/26 07:43:54;;;;;;;3.38;2.30;;;;;;;;;;5034079;28;20219;-46
2021/10/26 07:46:20;;;;;;;3.55;2.53;;;;;;;;;;5034131;28;20194;-46
2021/10/26 07:48:46;;;;;;;3.35;2.10;;;;;;;;;;5030609;28;20204;-46
2021/10/26 07:51:13;;;;;;;2.30;2.10;;;;;;;;;;5031405;28;20223;-46
2021/10/26 07:53:39;;;;;;;2.65;2.00;;;;;;;;;;5034259;28;20183;-46
2021/10/26 07:56:07;;;;;;;2.97;1.80;;;;;;;;;;5034336;28;20263;-46
2021/10/26 07:58:35;;;;;;;3.17;2.10;;;;;;;;;;5032747;28;20270;-46
2021/10/26 08:01:01;;;;;;;2.75;2.25;;;;;;;;;;5033825;28;20172;-46
2021/10/26 08:03:27;;;;;;;3.38;2.20;;;;;;;;;;5033563;28;20265;-46
2021/10/26 08:05:54;;;;;;;2.22;2.03;;;;;;;;;;5034405;28;20547;-46
2021/10/26 08:08:20;;;;;;;4.30;2.28;;;;;;;;;;5033862;28;20183;-46
2021/10/26 08:10:47;;;;;;;2.15;1.95;;;;;;;;;;5022971;28;20203;-46
2021/10/26 08:13:13;;;;;;;2.90;2.30;;;;;;;;;;5033679;28;20416;-46
2021/10/26 08:15:39;;;;;;;3.30;2.00;;;;;;;;;;5034225;28;20530;-46
2021/10/26 08:18:05;;;;;;;2.67;2.35;;;;;;;;;;5034109;28;20191;-46
2021/10/26 08:20:31;;;;;;;2.17;1.98;;;;;;;;;;5032953;28;20196;-46
2021/10/26 08:22:57;;;;;;;2.70;2.00;;;;;;;;;;5033748;28;20176;-46
2021/10/26 08:25:26;;;;;;;4.20;2.20;;;;;;;;;;5033756;28;20215;-46
2021/10/26 08:27:55;;;;;;;3.00;2.03;;;;;;;;;;5033998;28;20597;-46
2021/10/26 08:30:49;;;;;;;3.20;2.22;;;;;;;;;;5025607;28;20182;-46
2021/10/26 08:35:56;;;;;;;2.70;2.10;;;;;;;;;;5034226;28;20191;-46
2021/10/26 08:38:22;;;;;;;3.25;2.10;;;;;;;;;;5033921;28;20183;-46
2021/10/26 08:40:48;;;;;;;2.72;2.40;;;;;;;;;;5017984;28;20491;-46
2021/10/26 08:43:16;;;;;;;2.53;2.20;;;;;;;;;;5037465;28;20294;-46
2021/10/26 08:45:46;;;;;;;3.22;2.10;;;;;;;;;;5037749;28;20183;-46
2021/10/26 08:48:14;;;;;;;3.25;2.25;;;;;;;;;;5037455;28;20500;-46
2021/10/26 08:50:40;;;;;;;4.20;2.20;;;;;;;;;;5030361;28;20310;-46
2021/10/26 08:53:07;;;;;;;2.92;2.25;;;;;;;;;;5037443;28;20278;-46
2021/10/26 08:55:39;;;;;;;2.40;2.17;;;;;;;;;;5037809;28;20242;-46
2021/10/26 08:58:06;;;;;;;2.50;2.00;;;;;;;;;;5040597;28;20179;-46
2021/10/26 09:00:32;;;;;;;2.15;1.95;;;;;;;;;;5032423;28;20179;-46
2021/10/26 09:02:58;;;;;;;2.42;2.10;;;;;;;;;;5041585;28;20209;-46
2021/10/26 09:05:25;;;;;;;3.40;2.13;;;;;;;;;;5056531;28;20621;-46
2021/10/26 09:08:07;;;;;;;3.15;2.30;;;;;;;;;;5057731;28;20171;-46
2021/10/26 09:10:34;;;;;;;2.42;1.90;;;;;;;;;;5040124;28;20501;-46
2021/10/26 09:18:40;;;;;;;2.30;2.10;;;;;;;;;;5036806;28;20616;-46
2021/10/26 09:21:21;;;;;;;2.60;2.22;;;;;;;;;;5037224;28;20187;-46
2021/10/26 09:23:48;;;;;;;2.30;1.85;;;;;;;;;;5036472;28;20191;-46
2021/10/26 09:26:15;;;;;;;2.95;2.40;;;;;;;;;;5036813;28;20267;-46
2021/10/26 09:28:48;;;;;;;2.08;1.80;;;;;;;;;;5036626;28;20179;-46
2021/10/26 09:31:22;;;;;;;2.10;1.80;;;;;;;;;;5037356;28;20179;-46
2021/10/26 09:33:56;;;;;;;1.95;1.85;;;;;;;;;;5036525;28;20180;-46
2021/10/26 09:36:26;;;;;;;2.28;2.00;;;;;;;;;;5037291;28;20172;-46
2021/10/26 09:38:56;;;;;;;2.50;2.20;;;;;;;;;;5036107;28;20184;-46
2021/10/26 09:41:22;;;;;;;2.28;2.05;;;;;;;;;;5037240;28;20168;-46
2021/10/26 09:43:48;;;;;;;3.03;2.47;;;;;;;;;;5035699;28;20242;-46
2021/10/26 09:46:14;;;;;;;3.15;2.30;;;;;;;;;;5022863;28;20180;-46
2021/10/26 09:48:40;;;;;;;2.78;2.50;;;;;;;;;;5035691;28;20176;-46
2021/10/26 09:51:09;;;;;;;2.58;2.30;;;;;;;;;;5036893;28;20562;-46
2021/10/26 09:53:36;;;;;;;2.60;2.30;;;;;;;;;;5036149;28;20192;-46
2021/10/26 09:56:05;;;;;;;2.67;2.42;;;;;;;;;;5036664;28;20226;-46
2021/10/26 09:58:33;;;;;;;3.08;2.30;;;;;;;;;;5035670;28;20183;-46
2021/10/26 10:01:10;;;;;;;2.63;2.30;;;;;;;;;;5021218;28;20203;-46
2021/10/26 10:03:36;;;;;;;2.42;1.92;;;;;;;;;;5036206;28;20210;-46
2021/10/26 10:06:06;;;;;;;2.13;2.03;;;;;;;;;;5036861;28;20164;-46
2021/10/26 10:08:36;;;;;;;2.38;2.10;;;;;;;;;;5036028;28;20176;-46
2021/10/26 10:11:09;;;;;;;2.60;2.10;;;;;;;;;;5033036;28;20184;-46
2021/10/26 10:13:45;;;;;;;2.67;2.22;;;;;;;;;;5035964;28;20226;-46
2021/10/26 10:16:13;;;;;;;2.28;2.00;;;;;;;;;;5036396;28;20454;-46
2021/10/26 10:18:41;;;;;;;2.30;2.10;;;;;;;;;;5036567;28;20184;-46
2021/10/26 10:21:08;;;;;;;2.35;1.90;;;;;;;;;;5030127;28;20188;-46
2021/10/26 10:23:34;;;;;;;2.67;2.05;;;;;;;;;;5034894;28;20654;-46
2021/10/26 10:26:01;;;;;;;2.97;2.60;;;;;;;;;;5036370;28;20607;-46
2021/10/26 10:28:29;;;;;;;3.53;2.60;;;;;;;;;;5036325;28;20563;-46
2021/10/26 10:30:58;;;;;;;2.65;2.20;;;;;;;;;;5035525;28;20180;-46
2021/10/26 10:33:25;;;;;;;2.40;2.17;;;;;;;;;;5035611;28;20226;-46
2021/10/26 10:35:54;;;;;;;2.60;2.08;;;;;;;;;;5035400;28;20187;-46
2021/10/26 10:38:24;;;;;;;2.50;2.30;;;;;;;;;;5035141;28;20448;-46
2021/10/26 10:40:50;;;;;;;2.33;2.13;;;;;;;;;;5035597;28;20190;-46
2021/10/26 10:43:33;;;;;;;2.28;2.05;;;;;;;;;;5035028;28;20226;-46
2021/10/26 10:45:59;;;;;;;2.40;2.10;;;;;;;;;;5035557;28;20191;-46
2021/10/26 10:48:30;;;;;;;2.60;2.20;;;;;;;;;;5035709;28;20505;-46
2021/10/26 10:51:11;;;;;;;2.70;2.03;;;;;;;;;;5018378;28;20173;-46
2021/10/26 10:53:37;;;;;;;2.17;1.98;;;;;;;;;;5031888;28;20179;-46
2021/10/26 10:56:17;;;;;;;2.22;2.03;;;;;;;;;;5035481;28;20195;-46
2021/10/26 10:58:45;;;;;;;2.42;1.98;;;;;;;;;;5035245;28;20184;-46
2021/10/26 11:01:16;;;;;;;2.30;2.10;;;;;;;;;;5016355;28;20207;-46
2021/10/26 11:03:42;;;;;;;2.47;2.17;;;;;;;;;;5031399;28;20211;-46
2021/10/26 11:06:09;;;;;;;2.20;1.88;;;;;;;;;;5034960;28;20270;-46
2021/10/26 11:08:47;;;;;;;2.22;1.80;;;;;;;;;;5035029;28;20199;-46
2021/10/26 11:11:16;;;;;;;2.35;2.10;;;;;;;;;;5017605;28;20180;-46
2021/10/26 11:13:42;;;;;;;1.98;1.77;;;;;;;;;;5032485;28;20211;-46
2021/10/26 11:16:09;;;;;;;2.28;1.98;;;;;;;;;;5035160;28;20222;-46
2021/10/26 11:18:39;;;;;;;2.28;2.08;;;;;;;;;;5034617;28;20175;-46
2021/10/26 11:21:10;;;;;;;2.08;1.85;;;;;;;;;;5017163;28;20540;-46
2021/10/26 11:23:37;;;;;;;2.28;1.95;;;;;;;;;;5034133;28;20200;-46
2021/10/26 11:26:04;;;;;;;1.88;1.70;;;;;;;;;;5034943;28;20269;-46
2021/10/26 11:28:30;;;;;;;2.30;1.85;;;;;;;;;;5034454;28;20602;-46
2021/10/26 11:30:59;;;;;;;2.58;2.05;;;;;;;;;;5035064;28;20203;-46
2021/10/26 11:33:25;;;;;;;2.08;1.88;;;;;;;;;;5034006;28;20758;-46
2021/10/26 11:36:09;;;;;;;2.08;1.90;;;;;;;;;;5034572;28;20183;-46
2021/10/26 11:38:46;;;;;;;2.53;1.98;;;;;;;;;;5032476;28;20184;-46
2021/10/26 11:41:13;;;;;;;1.98;1.88;;;;;;;;;;5034869;28;20176;-46
2021/10/26 11:43:50;;;;;;;1.90;1.80;;;;;;;;;;5033823;28;20279;-46
2021/10/26 11:46:25;;;;;;;1.75;1.65;;;;;;;;;;5034248;28;20194;-46
2021/10/26 11:48:55;;;;;;;3.15;1.98;;;;;;;;;;5032870;28;20187;-46
2021/10/26 11:51:22;;;;;;;1.90;1.80;;;;;;;;;;5035016;28;20533;-47
2021/10/26 11:53:49;;;;;;;1.60;1.50;;;;;;;;;;5033895;28;20211;-46
2021/10/26 11:56:24;;;;;;;2.17;1.98;;;;;;;;;;5033926;28;20211;-46
2021/10/26 11:58:54;;;;;;;2.20;1.92;;;;;;;;;;5034190;28;20250;-46
2021/10/26 12:01:21;;;;;;;2.05;1.85;;;;;;;;;;5034642;28;20176;-46
2021/10/26 12:03:50;;;;;;;2.30;2.10;;;;;;;;;;5033547;28;20547;-46
2021/10/26 12:06:36;;;;;;;1.63;1.52;;;;;;;;;;5034120;28;20180;-46
2021/10/26 12:09:04;;;;;;;1.98;1.77;;;;;;;;;;5020902;28;20180;-46
2021/10/26 12:11:33;;;;;;;1.83;1.73;;;;;;;;;;5034092;28;20608;-46
2021/10/26 12:14:17;;;;;;;1.73;1.63;;;;;;;;;;5034132;28;20456;-46
2021/10/26 12:17:02;;;;;;;1.83;1.73;;;;;;;;;;5034382;28;20271;-46
2021/10/26 12:19:28;;;;;;;1.90;1.80;;;;;;;;;;5036244;28;20183;-46
2021/10/26 12:21:58;;;;;;;1.58;1.48;;;;;;;;;;5036059;28;20184;-46
2021/10/26 12:24:27;;;;;;;1.98;1.80;;;;;;;;;;5040251;28;20298;-46
2021/10/26 12:27:01;;;;;;;2.55;2.00;;;;;;;;;;5024134;28;20197;-46
2021/10/26 12:29:31;;;;;;;1.67;1.58;;;;;;;;;;5024186;28;20610;-46
2021/10/26 12:31:57;;;;;;;2.05;1.85;;;;;;;;;;5034084;28;20225;-47
2021/10/26 12:34:24;;;;;;;1.60;1.50;;;;;;;;;;5033859;28;20168;-46
2021/10/26 12:36:51;;;;;;;1.75;1.65;;;;;;;;;;5033525;28;20187;-46
2021/10/26 12:39:24;;;;;;;1.73;1.63;;;;;;;;;;5033899;28;20238;-46
2021/10/26 12:41:50;;;;;;;1.80;1.70;;;;;;;;;;5034254;28;20175;-46
2021/10/26 12:44:18;;;;;;;2.35;2.00;;;;;;;;;;5033237;28;20207;-46
2021/10/26 12:46:44;;;;;;;2.38;2.03;;;;;;;;;;5027248;28;20184;-46
2021/10/26 12:49:13;;;;;;;1.80;1.67;;;;;;;;;;5034145;28;20198;-46
2021/10/26 12:51:39;;;;;;;1.60;1.50;;;;;;;;;;5033799;28;20595;-46
2021/10/26 12:54:12;;;;;;;1.60;1.50;;;;;;;;;;5032769;28;20267;-46
2021/10/26 12:56:45;;;;;;;2.00;1.80;;;;;;;;;;5031388;28;20480;-46
2021/10/26 12:59:11;;;;;;;2.20;2.00;;;;;;;;;;5033984;28;20218;-46
2021/10/26 13:01:40;;;;;;;1.50;1.40;;;;;;;;;;5033797;28;20215;-46
2021/10/26 13:04:12;;;;;;;1.98;1.80;;;;;;;;;;5033331;28;20214;-46
2021/10/26 13:06:39;;;;;;;1.60;1.42;;;;;;;;;;5031003;28;20199;-46
2021/10/26 13:09:07;;;;;;;1.60;1.50;;;;;;;;;;5030081;28;20188;-46
2021/10/26 13:11:38;;;;;;;1.40;1.30;;;;;;;;;;5033976;28;20255;-46
2021/10/26 13:14:04;;;;;;;1.88;1.63;;;;;;;;;;5033423;28;20684;-46
2021/10/26 13:16:35;;;;;;;2.08;1.92;;;;;;;;;;5028919;28;20180;-46
2021/10/26 13:19:16;;;;;;;1.60;1.50;;;;;;;;;;5033540;28;20242;-46
2021/10/26 13:21:49;;;;;;;1.83;1.73;;;;;;;;;;5033537;28;20251;-46
2021/10/26 13:24:16;;;;;;;1.70;1.60;;;;;;;;;;5033661;28;20277;-46
2021/10/26 13:26:42;;;;;;;1.80;1.70;;;;;;;;;;5033067;28;20575;-46
2021/10/26 13:29:08;;;;;;;1.55;1.45;;;;;;;;;;5036928;28;20176;-46
2021/10/26 13:31:36;;;;;;;1.50;1.40;;;;;;;;;;5037301;28;20180;-46
2021/10/26 13:34:02;;;;;;;2.35;1.67;;;;;;;;;;5036909;28;20187;-46
2021/10/26 13:36:33;;;;;;;1.60;1.50;;;;;;;;;;5036272;28;20195;-46
2021/10/26 13:38:59;;;;;;;1.77;1.50;;;;;;;;;;5037042;28;20578;-46
2021/10/26 13:41:25;;;;;;;2.97;1.48;;;;;;;;;;5037403;28;20563;-46
2021/10/26 13:43:51;;;;;;;1.63;1.50;;;;;;;;;;5036425;28;20248;-47
2021/10/26 13:46:18;;;;;;;1.73;1.45;;;;;;;;;;5035939;28;20183;-46
2021/10/26 13:48:44;;;;;;;2.05;1.65;;;;;;;;;;5036244;28;20194;-46
2021/10/26 13:51:11;;;;;;;1.65;1.52;;;;;;;;;;5035473;28;20267;-46
2021/10/26 13:53:37;;;;;;;3.80;1.80;;;;;;;;;;5036170;28;20226;-46
2021/10/26 13:56:03;;;;;;;2.65;1.65;;;;;;;;;;5036660;28;20176;-46
2021/10/26 13:58:29;;;;;;;3.85;1.70;;;;;;;;;;5032609;28;20172;-46
2021/10/26 14:00:58;;;;;;;2.55;1.63;;;;;;;;;;5036697;28;20408;-46
2021/10/26 14:03:24;;;;;;;1.75;1.50;;;;;;;;;;5035429;28;20304;-46
2021/10/26 14:05:51;;;;;;;1.70;1.60;;;;;;;;;;5036344;28;20767;-46
2021/10/26 14:08:17;;;;;;;2.22;1.80;;;;;;;;;;5032435;28;20180;-46
2021/10/26 14:10:44;;;;;;;1.67;1.58;;;;;;;;;;5034204;28;20184;-46
2021/10/26 14:13:10;;;;;;;5.15;1.73;;;;;;;;;;5034962;28;20186;-46
2021/10/26 14:15:36;;;;;;;2.13;1.58;;;;;;;;;;5036114;28;20594;-46
2021/10/26 14:18:03;;;;;;;3.35;1.70;;;;;;;;;;5034443;28;20202;-46
2021/10/26 14:20:30;;;;;;;2.75;1.50;;;;;;;;;;5032422;28;20187;-46
2021/10/26 14:22:56;;;;;;;2.20;1.67;;;;;;;;;;5033097;28;20221;-46
2021/10/26 14:25:23;;;;;;;2.28;1.77;;;;;;;;;;5032891;28;20208;-46
2021/10/26 14:27:53;;;;;;;2.15;1.60;;;;;;;;;;5032041;28;20203;-46
2021/10/26 14:30:22;;;;;;;1.73;1.35;;;;;;;;;;5027075;28;20190;-46
2021/10/26 14:32:49;;;;;;;1.85;1.50;;;;;;;;;;5027760;28;20547;-46
2021/10/26 14:35:21;;;;;;;3.65;1.92;;;;;;;;;;5028802;28;20200;-46
2021/10/26 14:37:59;;;;;;;1.60;1.50;;;;;;;;;;5029075;28;20237;-46
2021/10/26 14:54:04;;;;;;;1.88;1.52;;;;;;;;;;5031235;28;20217;-46
2021/10/26 14:56:30;;;;;;;2.45;1.50;;;;;;;;;;5028955;28;20263;-46
2021/10/26 14:58:56;;;;;;;2.33;1.65;;;;;;;;;;5030533;28;20180;-46
2021/10/26 15:01:23;;;;;;;3.20;1.73;;;;;;;;;;5031559;28;20212;-46
2021/10/26 15:03:49;;;;;;;1.60;1.50;;;;;;;;;;5030710;28;20480;-46
2021/10/26 15:06:15;;;;;;;3.10;1.45;;;;;;;;;;5028084;28;20250;-46
2021/10/26 15:08:47;;;;;;;1.80;1.60;;;;;;;;;;5028269;28;20254;-46
2021/10/26 15:11:20;;;;;;;1.80;1.50;;;;;;;;;;5032642;28;20206;-46